createdAt,value
2018-03-04T00:00:49.978Z,2.59
2018-03-04T00:03:18.087Z,2.66
2018-03-04T00:05:46.215Z,2.68
2018-03-04T00:08:14.324Z,2.76
2018-03-04T00:10:42.433Z,2.68
2018-03-04T00:13:10.553Z,2.75
2018-03-04T00:15:38.675Z,2.81
2018-03-04T00:18:06.784Z,2.86
2018-03-04T00:20:34.905Z,2.90
2018-03-04T00:23:03.041Z,2.89
2018-03-04T00:25:31.151Z,2.99
2018-03-04T00:27:59.268Z,3.05
2018-03-04T00:30:27.375Z,2.96
2018-03-04T00:32:55.480Z,3.08
2018-03-04T00:35:23.610Z,3.02
2018-03-04T00:37:51.709Z,2.95
2018-03-04T00:40:19.828Z,3.15
2018-03-04T00:42:47.937Z,3.09
2018-03-04T00:45:16.060Z,3.10
2018-03-04T00:47:47.421Z,3.11
2018-03-04T00:50:15.522Z,3.11
2018-03-04T00:52:43.653Z,3.11
2018-03-04T00:55:11.786Z,3.13
2018-03-04T00:57:39.895Z,3.21
2018-03-04T01:00:08.156Z,3.17
2018-03-04T01:02:36.277Z,3.13
2018-03-04T01:05:04.412Z,3.20
2018-03-04T01:07:32.529Z,3.14
2018-03-04T01:10:00.638Z,3.24
2018-03-04T01:12:28.735Z,3.13
2018-03-04T01:14:56.877Z,3.15
2018-03-04T01:17:24.983Z,3.23
2018-03-04T01:19:53.118Z,3.21
2018-03-04T01:22:21.237Z,3.24
2018-03-04T01:24:49.358Z,3.19
2018-03-04T01:27:17.460Z,3.19
2018-03-04T01:29:45.584Z,3.20
2018-03-04T01:32:13.692Z,3.15
2018-03-04T01:34:44.721Z,3.22
2018-03-04T01:37:12.856Z,3.21
2018-03-04T01:39:40.956Z,3.18
2018-03-04T01:42:09.087Z,3.27
2018-03-04T01:44:37.210Z,3.07
2018-03-04T01:47:05.304Z,3.03
2018-03-04T01:49:33.445Z,3.03
2018-03-04T01:52:01.569Z,3.16
2018-03-04T01:54:29.687Z,3.10
2018-03-04T01:56:57.795Z,3.10
2018-03-04T01:59:25.918Z,3.01
2018-03-04T02:01:54.039Z,3.05
2018-03-04T02:04:22.173Z,2.98
2018-03-04T02:06:50.285Z,3.10
2018-03-04T02:09:18.421Z,3.15
2018-03-04T02:11:46.570Z,3.17
2018-03-04T02:14:14.742Z,3.21
2018-03-04T02:16:42.843Z,3.21
2018-03-04T02:19:10.965Z,3.10
2018-03-04T02:21:39.098Z,3.12
2018-03-04T02:24:07.192Z,3.22
2018-03-04T02:26:35.328Z,3.21
2018-03-04T02:29:03.455Z,3.22
2018-03-04T02:31:31.565Z,3.26
2018-03-04T02:33:59.697Z,3.26
2018-03-04T02:36:27.822Z,3.22
2018-03-04T02:38:55.918Z,3.25
2018-03-04T02:41:24.036Z,3.35
2018-03-04T02:43:52.594Z,3.33
2018-03-04T02:46:20.735Z,3.29
2018-03-04T02:48:48.842Z,3.26
2018-03-04T02:51:16.956Z,3.20
2018-03-04T02:53:45.066Z,3.69
2018-03-04T02:56:13.207Z,3.44
2018-03-04T02:58:41.315Z,3.34
2018-03-04T03:01:09.435Z,3.34
2018-03-04T03:03:37.553Z,3.35
2018-03-04T03:06:05.663Z,3.38
2018-03-04T03:08:33.771Z,3.37
2018-03-04T03:11:01.886Z,3.36
2018-03-04T03:13:30.014Z,3.35
2018-03-04T03:15:58.114Z,3.37
2018-03-04T03:18:26.228Z,3.39
2018-03-04T03:20:54.678Z,3.42
2018-03-04T03:23:22.791Z,3.46
2018-03-04T03:25:50.900Z,3.38
2018-03-04T03:28:19.023Z,3.51
2018-03-04T03:30:47.156Z,3.48
2018-03-04T03:33:15.272Z,3.50
2018-03-04T03:35:45.293Z,3.55
2018-03-04T03:38:13.402Z,3.54
2018-03-04T03:40:41.519Z,3.60
2018-03-04T03:43:09.636Z,3.49
2018-03-04T03:45:37.740Z,3.52
2018-03-04T03:48:05.851Z,3.52
2018-03-04T03:50:33.999Z,3.60
2018-03-04T03:53:02.100Z,3.56
2018-03-04T03:55:30.225Z,3.62
2018-03-04T03:57:58.357Z,3.61
2018-03-04T04:00:26.466Z,3.56
2018-03-04T04:02:54.581Z,3.65
2018-03-04T04:05:22.694Z,3.61
2018-03-04T04:07:50.798Z,3.59
2018-03-04T04:10:18.931Z,3.64
2018-03-04T04:12:47.096Z,3.65
2018-03-04T04:15:15.202Z,3.75
2018-03-04T04:17:43.345Z,3.75
2018-03-04T04:20:11.461Z,3.80
2018-03-04T04:22:42.648Z,3.80
2018-03-04T04:25:10.885Z,3.76
2018-03-04T04:27:39.001Z,3.80
2018-03-04T04:30:07.118Z,3.82
2018-03-04T04:32:35.229Z,3.85
2018-03-04T04:35:06.275Z,3.79
2018-03-04T04:37:34.403Z,3.83
2018-03-04T04:40:02.513Z,3.88
2018-03-04T04:42:30.644Z,3.82
2018-03-04T04:44:58.801Z,3.78
2018-03-04T04:47:26.913Z,3.86
2018-03-04T04:49:55.087Z,3.81
2018-03-04T04:52:23.188Z,3.78
2018-03-04T04:54:51.314Z,3.76
2018-03-04T04:57:19.434Z,3.85
2018-03-04T04:59:47.539Z,3.88
2018-03-04T05:02:15.671Z,3.89
2018-03-04T05:04:43.808Z,3.88
2018-03-04T05:07:11.932Z,3.85
2018-03-04T05:09:40.051Z,3.91
2018-03-04T05:12:08.167Z,3.90
2018-03-04T05:14:36.290Z,3.99
2018-03-04T05:17:04.404Z,3.96
2018-03-04T05:19:32.722Z,3.91
2018-03-04T05:22:00.855Z,3.92
2018-03-04T05:24:28.955Z,3.92
2018-03-04T05:26:57.070Z,3.89
2018-03-04T05:29:25.220Z,4.00
2018-03-04T05:31:53.290Z,3.98
2018-03-04T05:34:21.414Z,4.01
2018-03-04T05:36:49.528Z,3.92
2018-03-04T05:39:17.725Z,3.98
2018-03-04T05:41:45.826Z,4.03
2018-03-04T05:44:13.945Z,4.10
2018-03-04T05:46:42.067Z,4.10
2018-03-04T05:49:10.176Z,4.07
2018-03-04T05:51:38.309Z,4.01
2018-03-04T05:54:06.428Z,4.05
2018-03-04T05:56:34.555Z,4.07
2018-03-04T05:59:02.730Z,4.09
2018-03-04T06:01:30.871Z,4.09
2018-03-04T06:03:58.976Z,4.12
2018-03-04T06:06:27.087Z,4.13
2018-03-04T06:08:56.164Z,4.09
2018-03-04T06:11:24.277Z,4.11
2018-03-04T06:13:52.398Z,4.10
2018-03-04T06:16:20.519Z,4.10
2018-03-04T06:18:48.619Z,4.11
2018-03-04T06:21:16.746Z,4.14
2018-03-04T06:23:44.881Z,4.11
2018-03-04T06:26:12.991Z,4.11
2018-03-04T06:28:41.096Z,4.11
2018-03-04T06:31:09.206Z,4.13
2018-03-04T06:33:37.318Z,4.12
2018-03-04T06:36:05.419Z,4.13
2018-03-04T06:38:33.551Z,4.19
2018-03-04T06:41:01.681Z,4.19
2018-03-04T06:43:29.802Z,4.20
2018-03-04T06:45:57.927Z,4.29
2018-03-04T06:48:26.046Z,4.21
2018-03-04T06:50:54.468Z,4.26
2018-03-04T06:53:22.584Z,4.25
2018-03-04T06:55:50.691Z,4.26
2018-03-04T06:58:18.826Z,4.21
2018-03-04T07:00:46.977Z,4.25
2018-03-04T07:03:15.073Z,4.28
2018-03-04T07:05:43.179Z,4.32
2018-03-04T07:08:11.300Z,4.32
2018-03-04T07:10:39.422Z,4.27
2018-03-04T07:13:07.538Z,4.27
2018-03-04T07:15:35.662Z,4.27
2018-03-04T07:18:03.770Z,4.25
2018-03-04T07:20:31.874Z,4.39
2018-03-04T07:23:00.024Z,4.52
2018-03-04T07:25:28.334Z,4.79
2018-03-04T07:27:56.447Z,5.03
2018-03-04T07:30:24.567Z,5.07
2018-03-04T07:32:52.685Z,4.99
2018-03-04T07:35:20.795Z,4.79
2018-03-04T07:37:48.908Z,5.01
2018-03-04T07:40:17.028Z,5.11
2018-03-04T07:42:45.866Z,5.03
2018-03-04T07:45:14.042Z,4.89
2018-03-04T07:47:42.156Z,4.89
2018-03-04T07:50:10.263Z,4.87
2018-03-04T07:52:38.399Z,4.95
2018-03-04T07:55:06.549Z,5.03
2018-03-04T07:57:34.751Z,5.27
2018-03-04T08:00:02.885Z,5.52
2018-03-04T08:02:31.030Z,5.40
2018-03-04T08:04:59.119Z,5.47
2018-03-04T08:07:27.254Z,5.52
2018-03-04T08:09:55.370Z,5.43
2018-03-04T08:12:23.488Z,5.46
2018-03-04T08:14:51.593Z,5.59
2018-03-04T08:17:23.259Z,5.42
2018-03-04T08:19:51.366Z,5.52
2018-03-04T08:22:19.488Z,5.69
2018-03-04T08:24:59.451Z,5.82
2018-03-04T08:27:39.466Z,5.68
2018-03-04T08:30:07.574Z,5.81
2018-03-04T08:32:35.671Z,6.00
2018-03-04T08:35:03.798Z,6.02
2018-03-04T08:37:31.900Z,5.94
2018-03-04T08:40:00.043Z,5.98
2018-03-04T08:42:28.184Z,6.14
2018-03-04T08:44:56.310Z,6.63
2018-03-04T08:47:24.405Z,6.67
2018-03-04T08:49:52.532Z,6.67
2018-03-04T08:52:20.648Z,6.49
2018-03-04T08:54:48.780Z,6.49
2018-03-04T08:57:16.930Z,6.52
2018-03-04T08:59:45.045Z,6.45
2018-03-04T09:02:13.220Z,6.35
2018-03-04T09:04:41.317Z,6.60
2018-03-04T09:07:09.436Z,6.77
2018-03-04T09:09:37.540Z,6.85
2018-03-04T09:12:05.668Z,6.95
2018-03-04T09:14:33.791Z,7.14
2018-03-04T09:17:01.909Z,7.16
2018-03-04T09:19:30.028Z,7.26
2018-03-04T09:21:58.166Z,7.65
2018-03-04T09:24:26.277Z,7.52
2018-03-04T09:26:54.398Z,7.50
2018-03-04T09:29:22.509Z,7.47
2018-03-04T09:31:50.629Z,7.80
2018-03-04T09:34:18.724Z,7.67
2018-03-04T09:36:46.850Z,8.04
2018-03-04T09:39:14.962Z,8.11
2018-03-04T09:41:43.083Z,8.23
2018-03-04T09:44:11.210Z,8.29
2018-03-04T09:46:39.328Z,8.28
2018-03-04T09:49:07.425Z,8.46
2018-03-04T09:51:35.588Z,8.02
2018-03-04T09:54:03.699Z,8.25
2018-03-04T09:56:31.824Z,8.63
2018-03-04T09:58:59.955Z,8.54
2018-03-04T10:01:28.108Z,8.59
2018-03-04T10:03:56.203Z,8.42
2018-03-04T10:06:24.484Z,8.18
2018-03-04T10:08:52.670Z,8.18
2018-03-04T10:11:20.840Z,8.11
2018-03-04T10:13:48.950Z,8.18
2018-03-04T10:16:17.073Z,8.14
2018-03-04T10:18:45.188Z,8.32
2018-03-04T10:21:13.314Z,8.68
2018-03-04T10:23:41.437Z,8.76
2018-03-04T10:26:09.560Z,8.75
2018-03-04T10:28:37.671Z,8.55
2018-03-04T10:31:05.792Z,8.99
2018-03-04T10:33:33.911Z,9.40
2018-03-04T10:36:02.017Z,9.41
2018-03-04T10:38:30.166Z,9.14
2018-03-04T10:40:58.277Z,9.29
2018-03-04T10:43:26.386Z,9.33
2018-03-04T10:45:54.517Z,9.74
2018-03-04T10:48:22.618Z,10.08
2018-03-04T10:50:50.729Z,9.68
2018-03-04T10:53:18.847Z,9.75
2018-03-04T10:55:46.948Z,9.79
2018-03-04T10:58:15.085Z,9.46
2018-03-04T11:00:47.042Z,9.39
2018-03-04T11:03:15.949Z,9.51
2018-03-04T11:05:44.052Z,9.58
2018-03-04T11:08:12.235Z,9.56
2018-03-04T11:10:40.344Z,9.68
2018-03-04T11:13:08.448Z,10.09
2018-03-04T11:15:36.563Z,10.23
2018-03-04T11:18:04.831Z,10.54
2018-03-04T11:20:32.950Z,10.71
2018-03-04T11:23:01.171Z,10.84
2018-03-04T11:25:29.287Z,10.70
2018-03-04T11:27:58.300Z,10.75
2018-03-04T11:30:26.446Z,11.01
2018-03-04T11:32:54.576Z,11.05
2018-03-04T11:35:22.679Z,11.20
2018-03-04T11:37:50.825Z,11.20
2018-03-04T11:40:18.945Z,11.27
2018-03-04T11:42:47.079Z,11.23
2018-03-04T11:45:15.223Z,11.27
2018-03-04T11:47:43.339Z,11.20
2018-03-04T11:50:11.444Z,10.92
2018-03-04T11:52:39.570Z,10.96
2018-03-04T11:55:07.675Z,11.05
2018-03-04T11:57:35.808Z,11.43
2018-03-04T12:00:03.977Z,11.72
2018-03-04T12:02:32.095Z,12.15
2018-03-04T12:05:00.213Z,11.77
2018-03-04T12:07:28.362Z,12.12
2018-03-04T12:09:56.484Z,12.19
2018-03-04T12:12:24.635Z,12.03
2018-03-04T12:14:52.716Z,11.96
2018-03-04T12:17:20.861Z,11.84
2018-03-04T12:19:48.997Z,12.00
2018-03-04T12:22:20.186Z,12.54
2018-03-04T12:24:48.359Z,12.74
2018-03-04T12:27:16.564Z,12.95
2018-03-04T12:29:44.718Z,13.06
2018-03-04T12:32:13.101Z,12.91
2018-03-04T12:34:41.677Z,12.88
2018-03-04T12:37:09.805Z,12.76
2018-03-04T12:39:38.096Z,12.71
2018-03-04T12:42:06.247Z,13.22
2018-03-04T12:44:34.321Z,13.57
2018-03-04T12:47:02.450Z,13.65
2018-03-04T12:49:30.559Z,13.83
2018-03-04T12:51:58.679Z,14.13
2018-03-04T12:54:26.846Z,13.56
2018-03-04T12:56:54.961Z,13.96
2018-03-04T12:59:23.074Z,14.04
2018-03-04T13:01:51.253Z,13.59
2018-03-04T13:04:19.442Z,13.66
2018-03-04T13:06:47.584Z,13.21
2018-03-04T13:09:15.693Z,13.31
2018-03-04T13:11:43.798Z,13.27
2018-03-04T13:14:11.934Z,13.26
2018-03-04T13:16:40.107Z,13.28
2018-03-04T13:19:08.238Z,13.57
2018-03-04T13:21:36.365Z,13.14
2018-03-04T13:24:04.488Z,13.25
2018-03-04T13:26:32.605Z,13.11
2018-03-04T13:29:00.724Z,13.10
2018-03-04T13:31:32.474Z,13.23
2018-03-04T13:34:00.592Z,13.13
2018-03-04T13:36:28.716Z,12.94
2018-03-04T13:38:56.835Z,13.03
2018-03-04T13:41:24.987Z,12.78
2018-03-04T13:43:53.116Z,13.22
2018-03-04T13:46:21.269Z,13.02
2018-03-04T13:48:49.409Z,12.87
2018-03-04T13:51:17.714Z,12.94
2018-03-04T13:53:45.846Z,12.84
2018-03-04T13:56:13.975Z,12.66
2018-03-04T13:58:42.131Z,12.59
2018-03-04T14:01:10.271Z,12.60
2018-03-04T14:03:38.377Z,12.50
2018-03-04T14:06:06.514Z,12.61
2018-03-04T14:08:34.643Z,12.62
2018-03-04T14:11:02.840Z,12.65
2018-03-04T14:13:30.969Z,12.61
2018-03-04T14:15:59.097Z,12.63
2018-03-04T14:18:27.464Z,12.65
2018-03-04T14:20:55.614Z,12.65
2018-03-04T14:23:23.738Z,12.70
2018-03-04T14:25:51.861Z,12.71
2018-03-04T14:28:19.994Z,12.62
2018-03-04T14:30:48.172Z,12.63
2018-03-04T14:33:16.303Z,12.51
2018-03-04T14:35:44.430Z,12.53
2018-03-04T14:38:12.545Z,12.49
2018-03-04T14:40:40.679Z,12.45
2018-03-04T14:43:08.779Z,12.43
2018-03-04T14:45:36.896Z,12.51
2018-03-04T14:48:05.012Z,12.50
2018-03-04T14:50:33.133Z,12.38
2018-03-04T14:53:02.156Z,12.27
2018-03-04T14:55:30.299Z,12.31
2018-03-04T14:57:58.423Z,12.23
2018-03-04T15:00:26.576Z,12.19
2018-03-04T15:02:54.711Z,12.17
2018-03-04T15:05:22.836Z,12.08
2018-03-04T15:07:50.949Z,12.14
2018-03-04T15:10:19.430Z,12.13
2018-03-04T15:12:47.526Z,12.12
2018-03-04T15:15:15.645Z,12.11
2018-03-04T15:17:43.773Z,12.14
2018-03-04T15:20:11.896Z,12.10
2018-03-04T15:22:40.020Z,12.08
2018-03-04T15:25:11.075Z,12.09
2018-03-04T15:27:39.212Z,12.05
2018-03-04T15:30:07.330Z,12.00
2018-03-04T15:32:35.475Z,12.00
2018-03-04T15:35:03.618Z,11.98
2018-03-04T15:37:32.595Z,11.98
2018-03-04T15:40:00.737Z,11.96
2018-03-04T15:42:28.878Z,11.98
2018-03-04T15:44:56.987Z,11.93
2018-03-04T15:47:25.150Z,11.90
2018-03-04T15:49:53.347Z,11.95
2018-03-04T15:52:21.398Z,11.92
2018-03-04T15:54:49.520Z,11.91
2018-03-04T15:57:17.624Z,11.90
2018-03-04T15:59:45.730Z,11.80
2018-03-04T16:02:13.865Z,11.78
2018-03-04T16:04:41.998Z,11.85
2018-03-04T16:07:10.122Z,11.74
2018-03-04T16:09:38.442Z,11.65
2018-03-04T16:12:06.541Z,11.54
2018-03-04T16:14:34.665Z,11.53
2018-03-04T16:17:02.923Z,11.48
2018-03-04T16:19:31.049Z,11.47
2018-03-04T16:21:59.185Z,11.44
2018-03-04T16:24:27.495Z,11.37
2018-03-04T16:26:55.739Z,11.34
2018-03-04T16:29:23.858Z,11.42
2018-03-04T16:31:51.988Z,11.24
2018-03-04T16:34:20.127Z,11.26
2018-03-04T16:36:48.558Z,11.26
2018-03-04T16:39:16.655Z,11.31
2018-03-04T16:41:44.752Z,11.24
2018-03-04T16:44:12.857Z,11.14
2018-03-04T16:46:40.976Z,11.10
2018-03-04T16:49:09.088Z,11.03
2018-03-04T16:51:37.194Z,11.06
2018-03-04T16:54:05.423Z,10.99
2018-03-04T16:56:33.536Z,11.00
2018-03-04T16:59:07.326Z,10.93
2018-03-04T17:01:35.436Z,10.94
2018-03-04T17:04:03.541Z,10.89
2018-03-04T17:06:31.672Z,10.83
2018-03-04T17:08:59.793Z,10.80
2018-03-04T17:11:27.947Z,10.75
2018-03-04T17:13:56.241Z,10.78
2018-03-04T17:16:24.339Z,10.69
2018-03-04T17:18:52.480Z,10.71
2018-03-04T17:21:20.608Z,10.57
2018-03-04T17:23:48.734Z,10.61
2018-03-04T17:26:16.861Z,10.59
2018-03-04T17:28:44.983Z,10.66
2018-03-04T17:31:13.101Z,10.58
2018-03-04T17:33:41.210Z,10.51
2018-03-04T17:36:09.319Z,10.45
2018-03-04T17:38:37.428Z,10.45
2018-03-04T17:41:05.534Z,10.40
2018-03-04T17:43:33.865Z,10.39
2018-03-04T17:46:01.963Z,10.34
2018-03-04T17:48:30.090Z,10.35
2018-03-04T17:50:58.203Z,10.33
2018-03-04T17:53:26.322Z,10.29
2018-03-04T17:55:54.437Z,10.34
2018-03-04T17:58:22.539Z,10.30
2018-03-04T18:00:50.656Z,10.29
2018-03-04T18:03:18.762Z,10.24
2018-03-04T18:05:46.873Z,10.23
2018-03-04T18:08:14.988Z,10.17
2018-03-04T18:10:43.325Z,10.11
2018-03-04T18:13:11.492Z,10.03
2018-03-04T18:15:39.625Z,9.93
2018-03-04T18:18:07.748Z,10.01
2018-03-04T18:20:35.881Z,10.02
2018-03-04T18:23:03.987Z,9.89
2018-03-04T18:25:32.105Z,9.87
2018-03-04T18:28:00.328Z,9.96
2018-03-04T18:30:28.403Z,9.94
2018-03-04T18:32:56.519Z,9.92
2018-03-04T18:35:24.642Z,9.91
2018-03-04T18:37:52.771Z,9.85
2018-03-04T18:40:20.892Z,9.72
2018-03-04T18:42:48.994Z,9.81
2018-03-04T18:45:17.113Z,9.74
2018-03-04T18:47:45.225Z,9.67
2018-03-04T18:50:13.320Z,9.62
2018-03-04T18:52:41.441Z,9.64
2018-03-04T18:55:09.555Z,9.68
2018-03-04T18:57:37.655Z,9.70
2018-03-04T19:00:05.771Z,9.64
2018-03-04T19:02:33.868Z,9.60
2018-03-04T19:05:01.998Z,9.57
2018-03-04T19:07:30.107Z,9.58
2018-03-04T19:09:58.232Z,9.53
2018-03-04T19:12:26.406Z,9.44
2018-03-04T19:14:54.467Z,9.47
2018-03-04T19:17:22.714Z,9.41
2018-03-04T19:19:50.823Z,9.41
2018-03-04T19:22:18.957Z,9.44
2018-03-04T19:24:47.091Z,9.40
2018-03-04T19:27:15.211Z,9.34
2018-03-04T19:29:43.340Z,9.18
2018-03-04T19:32:14.658Z,9.24
2018-03-04T19:34:45.708Z,9.20
2018-03-04T19:37:13.847Z,9.20
2018-03-04T19:39:41.960Z,9.23
2018-03-04T19:42:10.073Z,9.26
2018-03-04T19:44:38.319Z,9.19
2018-03-04T19:47:06.430Z,9.15
2018-03-04T19:49:34.576Z,9.15
2018-03-04T19:52:02.685Z,9.14
2018-03-04T19:54:30.827Z,9.15
2018-03-04T19:56:58.923Z,9.14
2018-03-04T19:59:27.059Z,9.15
2018-03-04T20:01:55.153Z,9.12
2018-03-04T20:04:23.278Z,9.15
2018-03-04T20:06:51.538Z,9.08
2018-03-04T20:09:19.666Z,9.13
2018-03-04T20:11:51.219Z,9.17
2018-03-04T20:14:22.955Z,9.17
2018-03-04T20:16:54.825Z,9.14
2018-03-04T20:19:22.923Z,9.10
2018-03-04T20:21:51.053Z,9.18
2018-03-04T20:24:19.161Z,9.09
2018-03-04T20:26:47.273Z,9.13
2018-03-04T20:29:17.332Z,9.03
2018-03-04T20:31:45.509Z,9.00
2018-03-04T20:34:17.164Z,9.10
2018-03-04T20:36:45.273Z,9.07
2018-03-04T20:39:13.377Z,8.98
2018-03-04T20:41:41.498Z,9.02
2018-03-04T20:44:09.634Z,9.06
2018-03-04T20:46:37.740Z,9.04
2018-03-04T20:49:05.835Z,8.98
2018-03-04T20:51:33.966Z,8.97
2018-03-04T20:54:02.981Z,8.97
2018-03-04T20:56:31.102Z,8.92
2018-03-04T20:58:59.228Z,8.90
2018-03-04T21:01:27.333Z,8.81
2018-03-04T21:03:55.439Z,8.77
2018-03-04T21:06:23.560Z,8.70
2018-03-04T21:08:51.669Z,8.61
2018-03-04T21:11:19.791Z,8.60
2018-03-04T21:13:47.912Z,8.58
2018-03-04T21:16:16.057Z,8.55
2018-03-04T21:18:44.174Z,8.57
2018-03-04T21:21:12.287Z,8.61
2018-03-04T21:23:40.428Z,8.56
2018-03-04T21:26:08.671Z,8.61
2018-03-04T21:28:36.783Z,8.65
2018-03-04T21:31:04.907Z,8.64
2018-03-04T21:33:33.081Z,8.68
2018-03-04T21:36:01.181Z,8.73
2018-03-04T21:38:29.285Z,8.69
2018-03-04T21:40:57.634Z,8.77
2018-03-04T21:43:25.982Z,8.78
2018-03-04T21:45:54.096Z,8.78
2018-03-04T21:48:22.291Z,8.84
2018-03-04T21:50:50.388Z,8.87
2018-03-04T21:53:18.508Z,8.84
2018-03-04T21:55:46.639Z,8.90
2018-03-04T21:58:14.755Z,8.90
2018-03-04T22:00:42.899Z,8.89
2018-03-04T22:03:11.029Z,8.87
2018-03-04T22:05:39.208Z,8.88
2018-03-04T22:08:07.272Z,8.84
2018-03-04T22:10:35.394Z,8.77
2018-03-04T22:13:03.511Z,8.81
2018-03-04T22:15:31.638Z,8.79
2018-03-04T22:17:59.745Z,8.80
2018-03-04T22:20:27.873Z,8.77
2018-03-04T22:22:55.967Z,8.75
2018-03-04T22:25:24.086Z,8.77
2018-03-04T22:27:52.920Z,8.72
2018-03-04T22:30:21.011Z,8.76
2018-03-04T22:32:49.120Z,8.72
2018-03-04T22:35:17.247Z,8.75
2018-03-04T22:37:46.251Z,8.74
2018-03-04T22:40:14.354Z,8.71
2018-03-04T22:42:42.485Z,8.69
2018-03-04T22:45:10.580Z,8.66
2018-03-04T22:47:38.700Z,8.67
2018-03-04T22:50:06.822Z,8.71
2018-03-04T22:52:34.918Z,8.67
2018-03-04T22:55:03.036Z,8.66
2018-03-04T22:57:31.156Z,8.66
2018-03-04T22:59:59.278Z,8.67
2018-03-04T23:02:27.390Z,8.63
2018-03-04T23:04:55.518Z,8.67
2018-03-04T23:07:23.638Z,8.67
2018-03-04T23:09:51.766Z,8.66
2018-03-04T23:12:19.897Z,8.66
2018-03-04T23:14:48.009Z,8.64
2018-03-04T23:17:16.093Z,8.61
2018-03-04T23:19:44.217Z,8.57
2018-03-04T23:22:12.331Z,8.54
2018-03-04T23:24:40.432Z,8.58
2018-03-04T23:27:08.571Z,8.54
2018-03-04T23:29:36.656Z,8.53
2018-03-04T23:32:04.774Z,8.53
2018-03-04T23:34:32.893Z,8.49
2018-03-04T23:37:00.992Z,8.46
2018-03-04T23:39:29.255Z,8.43
2018-03-04T23:41:57.370Z,8.35
2018-03-04T23:44:25.486Z,8.31
2018-03-04T23:46:53.579Z,8.28
2018-03-04T23:49:21.693Z,8.23
2018-03-04T23:51:49.791Z,8.25
2018-03-04T23:54:17.924Z,8.25
2018-03-04T23:56:46.027Z,8.25
2018-03-04T23:59:14.128Z,8.24
